sensor_id;sensor_type;location;lat;lon;timestamp;pressure;altitude;pressure_sealevel;temperature;humidity
59168;BME280;44948;55.046;73.266;2023-04-01T00:02:27;102826.91;;;-6.97;62.57
59168;BME280;44948;55.046;73.266;2023-04-01T00:05:39;102814.63;;;-7.06;62.49
59168;BME280;44948;55.046;73.266;2023-04-01T00:08:42;102827.72;;;-6.98;62.20
59168;BME280;44948;55.046;73.266;2023-04-01T00:11:46;102824.09;;;-7.03;62.48
59168;BME280;44948;55.046;73.266;2023-04-01T00:14:48;102823.88;;;-7.08;62.27
59168;BME280;44948;55.046;73.266;2023-04-01T00:17:51;102824.75;;;-7.08;62.60
59168;BME280;44948;55.046;73.266;2023-04-01T00:20:54;102830.88;;;-7.04;62.32
59168;BME280;44948;55.046;73.266;2023-04-01T00:24:08;102827.94;;;-7.13;62.27
59168;BME280;44948;55.046;73.266;2023-04-01T00:27:21;102834.16;;;-7.07;62.28
59168;BME280;44948;55.046;73.266;2023-04-01T00:30:23;102836.03;;;-7.02;62.08
59168;BME280;44948;55.046;73.266;2023-04-01T00:33:26;102834.31;;;-7.03;61.95
59168;BME280;44948;55.046;73.266;2023-04-01T00:36:31;102820.47;;;-7.09;62.04
59168;BME280;44948;55.046;73.266;2023-04-01T00:39:44;102831.13;;;-6.98;62.17
59168;BME280;44948;55.046;73.266;2023-04-01T00:42:53;102838.91;;;-6.95;62.14
59168;BME280;44948;55.046;73.266;2023-04-01T00:46:00;102828.19;;;-6.86;61.91
59168;BME280;44948;55.046;73.266;2023-04-01T00:49:02;102830.69;;;-6.88;61.56
59168;BME280;44948;55.046;73.266;2023-04-01T00:52:07;102819.47;;;-6.91;61.80
59168;BME280;44948;55.046;73.266;2023-04-01T00:55:10;102832.84;;;-6.76;61.39
59168;BME280;44948;55.046;73.266;2023-04-01T00:58:17;102839.03;;;-6.71;61.93
59168;BME280;44948;55.046;73.266;2023-04-01T01:01:26;102837.25;;;-6.72;62.17
59168;BME280;44948;55.046;73.266;2023-04-01T01:04:32;102831.56;;;-6.66;61.97
59168;BME280;44948;55.046;73.266;2023-04-01T01:10:49;102824.81;;;-6.64;62.08
59168;BME280;44948;55.046;73.266;2023-04-01T01:14:09;102827.19;;;-6.26;61.60
59168;BME280;44948;55.046;73.266;2023-04-01T01:17:52;102828.84;;;-6.05;61.00
59168;BME280;44948;55.046;73.266;2023-04-01T01:24:46;102828.31;;;-5.97;61.09
59168;BME280;44948;55.046;73.266;2023-04-01T01:38:24;102834.78;;;-5.60;60.60
59168;BME280;44948;55.046;73.266;2023-04-01T01:41:37;102836.78;;;-5.53;60.87
59168;BME280;44948;55.046;73.266;2023-04-01T01:44:43;102840.66;;;-5.39;60.56
59168;BME280;44948;55.046;73.266;2023-04-01T01:47:49;102831.97;;;-5.44;60.60
59168;BME280;44948;55.046;73.266;2023-04-01T01:51:05;102838.25;;;-5.36;60.79
59168;BME280;44948;55.046;73.266;2023-04-01T01:54:18;102833.50;;;-5.25;60.72
59168;BME280;44948;55.046;73.266;2023-04-01T01:57:31;102845.69;;;-5.18;60.59
59168;BME280;44948;55.046;73.266;2023-04-01T02:00:39;102851.53;;;-4.97;60.65
59168;BME280;44948;55.046;73.266;2023-04-01T02:03:45;102837.56;;;-4.81;60.28
59168;BME280;44948;55.046;73.266;2023-04-01T02:07:00;102853.78;;;-4.55;60.26
59168;BME280;44948;55.046;73.266;2023-04-01T02:10:05;102861.63;;;-4.23;59.91
59168;BME280;44948;55.046;73.266;2023-04-01T02:13:27;102869.47;;;-3.90;59.48
59168;BME280;44948;55.046;73.266;2023-04-01T02:16:55;102857.97;;;-3.46;58.56
59168;BME280;44948;55.046;73.266;2023-04-01T02:20:05;102859.16;;;-3.02;58.27
59168;BME280;44948;55.046;73.266;2023-04-01T02:23:10;102855.88;;;-2.63;57.60
59168;BME280;44948;55.046;73.266;2023-04-01T02:26:13;102855.53;;;-2.42;56.38
59168;BME280;44948;55.046;73.266;2023-04-01T02:29:27;102861.81;;;-2.31;56.02
59168;BME280;44948;55.046;73.266;2023-04-01T02:32:31;102858.63;;;-2.19;55.69
59168;BME280;44948;55.046;73.266;2023-04-01T02:35:38;102853.38;;;-1.86;55.47
59168;BME280;44948;55.046;73.266;2023-04-01T02:38:44;102834.75;;;-1.75;54.78
59168;BME280;44948;55.046;73.266;2023-04-01T02:41:47;102854.88;;;-1.55;54.89
59168;BME280;44948;55.046;73.266;2023-04-01T02:44:52;102868.00;;;-1.43;54.30
59168;BME280;44948;55.046;73.266;2023-04-01T02:47:54;102868.44;;;-1.22;54.66
59168;BME280;44948;55.046;73.266;2023-04-01T02:50:59;102864.69;;;-0.92;53.94
59168;BME280;44948;55.046;73.266;2023-04-01T03:02:10;102870.94;;;-0.80;52.32
59168;BME280;44948;55.046;73.266;2023-04-01T03:05:12;102879.06;;;-0.57;52.74
59168;BME280;44948;55.046;73.266;2023-04-01T03:08:20;102885.25;;;-0.47;51.95
59168;BME280;44948;55.046;73.266;2023-04-01T03:11:25;102877.00;;;-0.23;52.29
59168;BME280;44948;55.046;73.266;2023-04-01T03:14:28;102890.31;;;0.01;51.00
59168;BME280;44948;55.046;73.266;2023-04-01T03:17:33;102879.41;;;0.22;51.46
59168;BME280;44948;55.046;73.266;2023-04-01T03:20:40;102886.81;;;-0.01;51.48
59168;BME280;44948;55.046;73.266;2023-04-01T03:23:44;102888.03;;;0.24;51.00
59168;BME280;44948;55.046;73.266;2023-04-01T03:26:46;102889.22;;;0.49;51.31
59168;BME280;44948;55.046;73.266;2023-04-01T03:29:49;102898.88;;;0.64;50.14
59168;BME280;44948;55.046;73.266;2023-04-01T03:32:51;102898.22;;;0.81;50.65
59168;BME280;44948;55.046;73.266;2023-04-01T03:35:54;102894.94;;;0.96;50.09
59168;BME280;44948;55.046;73.266;2023-04-01T03:39:02;102907.25;;;1.20;49.35
59168;BME280;44948;55.046;73.266;2023-04-01T03:42:12;102900.25;;;1.08;48.88
59168;BME280;44948;55.046;73.266;2023-04-01T03:45:14;102898.69;;;1.24;49.12
59168;BME280;44948;55.046;73.266;2023-04-01T03:48:17;102906.47;;;1.27;48.45
59168;BME280;44948;55.046;73.266;2023-04-01T03:51:28;102924.72;;;1.46;49.33
59168;BME280;44948;55.046;73.266;2023-04-01T03:54:31;102910.97;;;1.50;48.30
59168;BME280;44948;55.046;73.266;2023-04-01T03:57:34;102914.53;;;1.64;48.47
59168;BME280;44948;55.046;73.266;2023-04-01T04:00:47;102906.78;;;1.64;47.96
59168;BME280;44948;55.046;73.266;2023-04-01T04:03:50;102923.31;;;1.81;48.15
59168;BME280;44948;55.046;73.266;2023-04-01T04:06:54;102925.19;;;2.00;48.50
59168;BME280;44948;55.046;73.266;2023-04-01T04:09:58;102922.44;;;1.81;47.08
59168;BME280;44948;55.046;73.266;2023-04-01T04:13:10;102925.97;;;1.86;46.78
59168;BME280;44948;55.046;73.266;2023-04-01T04:16:27;102926.81;;;1.86;46.98
59168;BME280;44948;55.046;73.266;2023-04-01T04:19:34;102924.28;;;1.94;46.55
59168;BME280;44948;55.046;73.266;2023-04-01T04:22:37;102932.06;;;1.98;47.08
59168;BME280;44948;55.046;73.266;2023-04-01T04:25:52;102913.16;;;2.06;45.80
59168;BME280;44948;55.046;73.266;2023-04-01T04:28:58;102934.09;;;2.42;46.15
59168;BME280;44948;55.046;73.266;2023-04-01T04:32:00;102934.94;;;2.37;45.16
59168;BME280;44948;55.046;73.266;2023-04-01T04:35:13;102926.31;;;2.45;45.72
59168;BME280;44948;55.046;73.266;2023-04-01T04:38:16;102918.53;;;2.41;45.10
59168;BME280;44948;55.046;73.266;2023-04-01T04:41:19;102920.22;;;2.34;44.87
59168;BME280;44948;55.046;73.266;2023-04-01T04:44:25;102916.63;;;2.14;45.46
59168;BME280;44948;55.046;73.266;2023-04-01T04:47:27;102925.44;;;2.37;45.23
59168;BME280;44948;55.046;73.266;2023-04-01T04:50:29;102929.78;;;2.50;45.11
59168;BME280;44948;55.046;73.266;2023-04-01T04:53:32;102918.63;;;2.63;44.16
59168;BME280;44948;55.046;73.266;2023-04-01T04:56:35;102926.47;;;2.76;43.68
59168;BME280;44948;55.046;73.266;2023-04-01T04:59:43;102923.88;;;2.82;44.00
59168;BME280;44948;55.046;73.266;2023-04-01T05:02:59;102903.19;;;2.88;44.01
59168;BME280;44948;55.046;73.266;2023-04-01T05:06:02;102922.28;;;3.20;43.60
59168;BME280;44948;55.046;73.266;2023-04-01T05:09:05;102924.06;;;3.43;43.05
59168;BME280;44948;55.046;73.266;2023-04-01T05:12:07;102915.34;;;3.13;42.02
59168;BME280;44948;55.046;73.266;2023-04-01T05:15:32;102927.50;;;3.39;42.23
59168;BME280;44948;55.046;73.266;2023-04-01T05:18:42;102919.75;;;3.60;41.59
59168;BME280;44948;55.046;73.266;2023-04-01T05:21:49;102908.50;;;3.73;41.67
59168;BME280;44948;55.046;73.266;2023-04-01T05:25:02;102908.47;;;3.79;41.96
59168;BME280;44948;55.046;73.266;2023-04-01T05:28:04;102901.53;;;4.09;41.58
59168;BME280;44948;55.046;73.266;2023-04-01T05:31:09;102904.13;;;4.01;40.83
59168;BME280;44948;55.046;73.266;2023-04-01T05:34:21;102883.31;;;4.23;40.67
59168;BME280;44948;55.046;73.266;2023-04-01T05:37:23;102891.84;;;4.54;41.00
59168;BME280;44948;55.046;73.266;2023-04-01T13:00:12;102645.31;;;-0.61;61.87
59168;BME280;44948;55.046;73.266;2023-04-01T13:07:15;102650.66;;;-0.46;61.03
59168;BME280;44948;55.046;73.266;2023-04-01T13:23:34;102633.91;;;-0.07;60.52
59168;BME280;44948;55.046;73.266;2023-04-01T13:44:51;102608.75;;;-0.96;61.71
59168;BME280;44948;55.046;73.266;2023-04-01T13:48:15;102594.03;;;-1.03;61.96
59168;BME280;44948;55.046;73.266;2023-04-01T13:55:30;102599.78;;;-1.21;62.35
59168;BME280;44948;55.046;73.266;2023-04-01T13:58:49;102599.69;;;-1.27;63.04
59168;BME280;44948;55.046;73.266;2023-04-01T14:23:11;102592.38;;;-1.57;63.18
59168;BME280;44948;55.046;73.266;2023-04-01T14:26:35;102583.66;;;-1.67;63.28
59168;BME280;44948;55.046;73.266;2023-04-01T14:36:57;102595.41;;;-1.81;63.78
59168;BME280;44948;55.046;73.266;2023-04-01T14:43:58;102581.47;;;-1.92;63.68
59168;BME280;44948;55.046;73.266;2023-04-01T14:47:24;102585.84;;;-1.86;63.92
59168;BME280;44948;55.046;73.266;2023-04-01T14:50:45;102573.13;;;-1.80;63.61
59168;BME280;44948;55.046;73.266;2023-04-01T14:54:03;102576.53;;;-1.81;63.81
59168;BME280;44948;55.046;73.266;2023-04-01T14:57:31;102574.66;;;-1.90;63.96
59168;BME280;44948;55.046;73.266;2023-04-01T15:08:04;102570.81;;;-2.13;64.00
59168;BME280;44948;55.046;73.266;2023-04-01T15:11:17;102576.13;;;-2.04;63.95
59168;BME280;44948;55.046;73.266;2023-04-01T15:14:32;102557.22;;;-2.06;63.71
59168;BME280;44948;55.046;73.266;2023-04-01T15:18:12;102558.84;;;-2.13;63.54
59168;BME280;44948;55.046;73.266;2023-04-01T15:21:50;102556.09;;;-2.21;63.51
59168;BME280;44948;55.046;73.266;2023-04-01T15:39:54;102557.75;;;-2.24;63.34
59168;BME280;44948;55.046;73.266;2023-04-01T15:43:44;102551.72;;;-2.26;63.38
59168;BME280;44948;55.046;73.266;2023-04-01T15:46:50;102550.13;;;-2.19;63.55
59168;BME280;44948;55.046;73.266;2023-04-01T16:00:09;102562.22;;;-2.15;62.92
59168;BME280;44948;55.046;73.266;2023-04-01T16:03:34;102556.91;;;-2.25;63.28
59168;BME280;44948;55.046;73.266;2023-04-01T16:17:25;102539.63;;;-2.32;62.79
59168;BME280;44948;55.046;73.266;2023-04-01T16:21:01;102548.97;;;-2.35;63.00
59168;BME280;44948;55.046;73.266;2023-04-01T16:24:23;102552.38;;;-2.36;62.70
59168;BME280;44948;55.046;73.266;2023-04-01T16:31:44;102553.03;;;-2.48;62.82
59168;BME280;44948;55.046;73.266;2023-04-01T16:38:16;102557.53;;;-2.36;62.64
59168;BME280;44948;55.046;73.266;2023-04-01T16:41:31;102547.13;;;-2.44;62.76
59168;BME280;44948;55.046;73.266;2023-04-01T16:48:45;102553.03;;;-2.48;62.47
59168;BME280;44948;55.046;73.266;2023-04-01T17:05:12;102559.00;;;-2.49;63.19
59168;BME280;44948;55.046;73.266;2023-04-01T17:08:43;102564.00;;;-2.55;62.61
59168;BME280;44948;55.046;73.266;2023-04-01T17:12:12;102580.16;;;-2.62;62.79
59168;BME280;44948;55.046;73.266;2023-04-01T17:15:51;102564.69;;;-2.65;62.71
59168;BME280;44948;55.046;73.266;2023-04-01T17:29:32;102566.97;;;-2.79;63.11
59168;BME280;44948;55.046;73.266;2023-04-01T17:35:58;102549.94;;;-2.74;63.04
59168;BME280;44948;55.046;73.266;2023-04-01T17:56:14;102554.88;;;-2.85;62.97
59168;BME280;44948;55.046;73.266;2023-04-01T17:59:47;102549.47;;;-2.97;63.27
59168;BME280;44948;55.046;73.266;2023-04-01T18:06:12;102536.75;;;-2.91;63.58
59168;BME280;44948;55.046;73.266;2023-04-01T18:22:45;102515.22;;;-3.36;64.64
59168;BME280;44948;55.046;73.266;2023-04-01T18:26:12;102508.63;;;-3.25;64.21
59168;BME280;44948;55.046;73.266;2023-04-01T18:29:44;102502.63;;;-3.26;64.13
59168;BME280;44948;55.046;73.266;2023-04-01T18:33:34;102504.38;;;-3.25;64.42
59168;BME280;44948;55.046;73.266;2023-04-01T18:40:00;102499.28;;;-3.22;64.30
59168;BME280;44948;55.046;73.266;2023-04-01T18:53:55;102501.78;;;-3.26;63.83
59168;BME280;44948;55.046;73.266;2023-04-01T18:57:25;102502.56;;;-3.30;63.46
59168;BME280;44948;55.046;73.266;2023-04-01T19:00:39;102497.69;;;-3.18;63.66
59168;BME280;44948;55.046;73.266;2023-04-01T19:10:49;102492.31;;;-3.29;63.11
59168;BME280;44948;55.046;73.266;2023-04-01T19:20:51;102483.81;;;-3.26;63.05
59168;BME280;44948;55.046;73.266;2023-04-01T19:51:48;102465.47;;;-3.45;63.53
59168;BME280;44948;55.046;73.266;2023-04-01T19:58:36;102450.66;;;-3.56;63.38
59168;BME280;44948;55.046;73.266;2023-04-01T20:15:46;102449.66;;;-3.63;63.68
59168;BME280;44948;55.046;73.266;2023-04-01T20:18:55;102454.84;;;-3.60;64.00
59168;BME280;44948;55.046;73.266;2023-04-01T20:22:04;102450.44;;;-3.67;64.20
59168;BME280;44948;55.046;73.266;2023-04-01T20:28:36;102445.16;;;-3.73;64.38
59168;BME280;44948;55.046;73.266;2023-04-01T20:32:10;102449.50;;;-3.69;64.22
59168;BME280;44948;55.046;73.266;2023-04-01T20:35:25;102444.38;;;-3.69;63.94
59168;BME280;44948;55.046;73.266;2023-04-01T20:55:31;102418.31;;;-3.87;64.67
59168;BME280;44948;55.046;73.266;2023-04-01T21:02:36;102420.72;;;-3.95;64.65
59168;BME280;44948;55.046;73.266;2023-04-01T21:12:30;102426.59;;;-4.00;65.06
59168;BME280;44948;55.046;73.266;2023-04-01T21:19:31;102424.63;;;-4.11;65.19
59168;BME280;44948;55.046;73.266;2023-04-01T21:40:09;102427.66;;;-4.27;66.28
59168;BME280;44948;55.046;73.266;2023-04-01T21:44:14;102426.81;;;-4.26;65.81
59168;BME280;44948;55.046;73.266;2023-04-01T21:57:50;102430.72;;;-4.40;66.04
59168;BME280;44948;55.046;73.266;2023-04-01T22:04:41;102427.25;;;-4.42;66.60
59168;BME280;44948;55.046;73.266;2023-04-01T22:08:20;102444.22;;;-4.47;66.77
59168;BME280;44948;55.046;73.266;2023-04-01T22:11:40;102432.06;;;-4.54;66.64
59168;BME280;44948;55.046;73.266;2023-04-01T22:18:38;102427.69;;;-4.58;66.71
59168;BME280;44948;55.046;73.266;2023-04-01T22:22:08;102428.53;;;-4.59;67.04
59168;BME280;44948;55.046;73.266;2023-04-01T22:25:28;102431.16;;;-4.56;66.80
59168;BME280;44948;55.046;73.266;2023-04-01T22:29:02;102421.59;;;-4.64;66.94
59168;BME280;44948;55.046;73.266;2023-04-01T22:32:13;102430.34;;;-4.55;66.88
59168;BME280;44948;55.046;73.266;2023-04-01T22:35:30;102438.88;;;-4.55;67.06
59168;BME280;44948;55.046;73.266;2023-04-01T22:42:01;102437.03;;;-4.60;66.94
59168;BME280;44948;55.046;73.266;2023-04-01T22:49:41;102440.13;;;-4.72;67.20
59168;BME280;44948;55.046;73.266;2023-04-01T22:52:31;102441.91;;;-4.70;67.82
59168;BME280;44948;55.046;73.266;2023-04-01T22:55:38;102437.63;;;-4.71;67.88
59168;BME280;44948;55.046;73.266;2023-04-01T23:02:33;102434.00;;;-4.79;67.59
59168;BME280;44948;55.046;73.266;2023-04-01T23:05:47;102435.66;;;-4.81;67.99
59168;BME280;44948;55.046;73.266;2023-04-01T23:09:11;102437.38;;;-4.80;67.83
59168;BME280;44948;55.046;73.266;2023-04-01T23:12:21;102445.16;;;-4.77;68.10
59168;BME280;44948;55.046;73.266;2023-04-01T23:15:36;102431.44;;;-4.79;67.74
59168;BME280;44948;55.046;73.266;2023-04-01T23:22:26;102423.88;;;-4.74;67.61
59168;BME280;44948;55.046;73.266;2023-04-01T23:28:51;102413.22;;;-4.89;68.24
59168;BME280;44948;55.046;73.266;2023-04-01T23:31:59;102427.06;;;-4.83;67.90
59168;BME280;44948;55.046;73.266;2023-04-01T23:35:02;102413.19;;;-4.91;67.95
59168;BME280;44948;55.046;73.266;2023-04-01T23:38:05;102419.22;;;-4.89;67.96
59168;BME280;44948;55.046;73.266;2023-04-01T23:41:16;102412.13;;;-4.99;67.82
59168;BME280;44948;55.046;73.266;2023-04-01T23:44:24;102422.38;;;-4.99;67.81
59168;BME280;44948;55.046;73.266;2023-04-01T23:47:39;102426.59;;;-5.01;68.05
59168;BME280;44948;55.046;73.266;2023-04-01T23:50:48;102429.81;;;-5.07;68.24
59168;BME280;44948;55.046;73.266;2023-04-01T23:54:13;102400.31;;;-5.26;68.06
59168;BME280;44948;55.046;73.266;2023-04-01T23:57:24;102408.22;;;-5.18;67.89
